createdAt,value
2023-04-16T00:00:54.848Z,81.11
2023-04-16T00:03:33.661Z,82.40
2023-04-16T00:06:02.310Z,82.25
2023-04-16T00:08:30.647Z,83.36
2023-04-16T00:10:58.888Z,82.41
2023-04-16T00:13:28.040Z,80.67
2023-04-16T00:15:56.464Z,81.34
2023-04-16T00:18:24.822Z,82.52
2023-04-16T00:20:53.646Z,80.21
2023-04-16T00:23:21.995Z,77.08
2023-04-16T00:25:50.308Z,75.12
2023-04-16T00:28:18.544Z,78.18
2023-04-16T00:30:47.065Z,81.23
2023-04-16T00:33:16.111Z,82.28
2023-04-16T00:35:47.946Z,81.78
2023-04-16T00:38:16.820Z,80.08
2023-04-16T00:40:45.261Z,81.35
2023-04-16T00:43:20.733Z,83.88
2023-04-16T00:45:49.210Z,84.29
2023-04-16T00:48:17.764Z,83.96
2023-04-16T00:50:46.944Z,83.90
2023-04-16T00:53:15.423Z,83.30
2023-04-16T00:55:43.967Z,84.97
2023-04-16T00:58:12.168Z,85.22
2023-04-16T01:00:40.482Z,85.40
2023-04-16T01:03:09.376Z,86.03
2023-04-16T01:05:37.855Z,85.72
2023-04-16T01:08:06.373Z,85.62
2023-04-16T01:10:34.747Z,84.81
2023-04-16T01:13:02.993Z,78.73
2023-04-16T01:15:31.214Z,78.58
2023-04-16T01:17:59.582Z,82.35
2023-04-16T01:20:27.810Z,84.42
2023-04-16T01:22:56.036Z,84.92
2023-04-16T01:25:24.512Z,86.59
2023-04-16T01:27:55.026Z,85.48
2023-04-16T01:30:23.178Z,84.33
2023-04-16T01:33:14.651Z,85.57
2023-04-16T01:35:42.979Z,84.99
2023-04-16T01:38:11.282Z,84.85
2023-04-16T01:40:39.625Z,85.00
2023-04-16T01:43:08.118Z,87.14
2023-04-16T01:45:36.516Z,87.40
2023-04-16T01:48:04.977Z,87.22
2023-04-16T01:50:33.566Z,85.92
2023-04-16T01:53:05.093Z,86.04
2023-04-16T01:55:34.040Z,87.02
2023-04-16T01:58:02.330Z,86.33
2023-04-16T02:00:33.714Z,87.27
2023-04-16T02:03:02.440Z,87.00
2023-04-16T02:05:31.056Z,87.18
2023-04-16T02:07:59.452Z,87.62
2023-04-16T02:10:27.684Z,87.18
2023-04-16T02:12:56.685Z,85.67
2023-04-16T02:15:25.512Z,84.70
2023-04-16T02:17:57.125Z,85.82
2023-04-16T02:20:26.395Z,86.55
2023-04-16T02:22:57.183Z,86.77
2023-04-16T02:25:25.598Z,87.24
2023-04-16T02:27:55.380Z,86.93
2023-04-16T02:30:35.052Z,86.82
2023-04-16T02:33:05.816Z,86.28
2023-04-16T02:35:35.017Z,85.40
2023-04-16T02:38:04.393Z,86.41
2023-04-16T02:40:33.049Z,86.46
2023-04-16T02:43:01.406Z,87.16
2023-04-16T02:45:31.727Z,87.17
2023-04-16T02:48:00.830Z,86.65
2023-04-16T02:50:29.126Z,84.22
2023-04-16T02:52:57.625Z,84.17
2023-04-16T02:55:25.965Z,85.87
2023-04-16T02:57:54.307Z,86.62
2023-04-16T03:00:22.830Z,88.23
2023-04-16T03:02:51.306Z,87.83
2023-04-16T03:05:19.894Z,88.24
2023-04-16T03:07:48.291Z,86.42
2023-04-16T03:10:17.293Z,83.42
2023-04-16T03:12:45.765Z,80.87
2023-04-16T03:15:14.042Z,81.16
2023-04-16T03:17:42.314Z,79.87
2023-04-16T03:20:11.219Z,82.08
2023-04-16T03:22:39.721Z,86.59
2023-04-16T03:25:08.285Z,87.62
2023-04-16T03:27:36.510Z,85.70
2023-04-16T03:30:05.891Z,88.31
2023-04-16T03:32:35.007Z,83.93
2023-04-16T03:35:04.411Z,80.66
2023-04-16T03:37:33.008Z,81.61
2023-04-16T03:40:01.442Z,83.27
2023-04-16T03:42:29.739Z,85.61
2023-04-16T03:44:58.200Z,86.76
2023-04-16T03:47:26.587Z,86.87
2023-04-16T03:49:56.952Z,85.09
2023-04-16T03:52:25.290Z,83.16
2023-04-16T03:54:53.874Z,81.12
2023-04-16T03:57:27.501Z,83.85
2023-04-16T03:59:58.891Z,81.62
2023-04-16T04:02:28.849Z,83.37
2023-04-16T04:04:57.248Z,84.90
2023-04-16T04:07:25.590Z,82.14
2023-04-16T04:09:54.033Z,84.13
2023-04-16T04:12:22.448Z,85.58
2023-04-16T04:14:50.915Z,85.13
2023-04-16T04:17:19.155Z,83.30
2023-04-16T04:20:00.084Z,86.24
2023-04-16T04:22:29.696Z,83.52
2023-04-16T04:24:58.141Z,84.64
2023-04-16T04:27:28.091Z,84.87
2023-04-16T04:29:56.857Z,84.83
2023-04-16T04:32:25.859Z,83.90
2023-04-16T04:34:54.203Z,84.17
2023-04-16T04:37:22.433Z,85.74
2023-04-16T04:39:50.761Z,86.52
2023-04-16T04:42:19.646Z,87.15
2023-04-16T04:44:48.319Z,87.51
2023-04-16T04:47:16.659Z,84.61
2023-04-16T04:49:44.928Z,82.40
2023-04-16T04:52:13.365Z,85.87
2023-04-16T04:54:42.471Z,89.62
2023-04-16T04:57:10.768Z,86.02
2023-04-16T04:59:39.306Z,85.90
2023-04-16T05:02:07.906Z,84.50
2023-04-16T05:04:36.255Z,82.50
2023-04-16T05:07:04.564Z,82.07
2023-04-16T05:09:33.063Z,81.55
2023-04-16T05:12:01.255Z,80.86
2023-04-16T05:14:29.540Z,80.25
2023-04-16T05:16:57.891Z,77.77
2023-04-16T05:19:26.452Z,77.19
2023-04-16T05:21:54.677Z,76.95
2023-04-16T05:24:22.958Z,76.31
2023-04-16T05:26:51.489Z,75.42
2023-04-16T05:29:19.987Z,68.95
2023-04-16T05:31:48.172Z,67.62
2023-04-16T05:34:16.468Z,65.06
2023-04-16T05:36:44.690Z,63.79
2023-04-16T05:39:12.952Z,65.08
2023-04-16T05:41:41.269Z,59.45
2023-04-16T05:44:09.563Z,64.28
2023-04-16T05:46:37.810Z,64.59
2023-04-16T05:49:06.271Z,61.27
2023-04-16T05:51:34.580Z,59.12
2023-04-16T05:54:02.936Z,61.28
2023-04-16T05:56:31.174Z,57.84
2023-04-16T05:58:59.458Z,61.92
2023-04-16T06:01:27.690Z,59.72
2023-04-16T06:03:56.105Z,59.87
2023-04-16T06:06:24.464Z,60.95
2023-04-16T06:08:52.704Z,53.10
2023-04-16T06:11:21.119Z,55.54
2023-04-16T06:13:49.482Z,50.34
2023-04-16T06:16:17.683Z,49.55
2023-04-16T06:18:46.026Z,52.39
2023-04-16T06:21:14.375Z,52.41
2023-04-16T06:23:42.532Z,49.57
2023-04-16T06:26:12.117Z,49.17
2023-04-16T06:28:40.389Z,50.67
2023-04-16T06:31:08.740Z,48.63
2023-04-16T06:33:37.138Z,47.88
2023-04-16T06:36:05.488Z,48.90
2023-04-16T06:38:33.706Z,44.12
2023-04-16T06:41:02.093Z,50.18
2023-04-16T06:43:31.952Z,46.04
2023-04-16T06:46:00.400Z,43.62
2023-04-16T06:48:28.725Z,40.75
2023-04-16T06:50:57.052Z,39.37
2023-04-16T06:53:25.689Z,42.04
2023-04-16T06:55:53.827Z,43.84
2023-04-16T06:58:22.552Z,43.99
2023-04-16T07:00:50.908Z,43.49
2023-04-16T07:03:19.333Z,42.69
2023-04-16T07:05:47.649Z,43.22
2023-04-16T07:08:15.906Z,39.16
2023-04-16T07:10:44.227Z,41.31
2023-04-16T07:13:12.435Z,38.90
2023-04-16T07:15:40.913Z,39.56
2023-04-16T07:18:09.766Z,39.28
2023-04-16T07:20:38.129Z,38.46
2023-04-16T07:23:06.478Z,39.53
2023-04-16T07:25:34.890Z,37.14
2023-04-16T07:28:03.699Z,39.57
2023-04-16T07:30:34.708Z,38.37
2023-04-16T07:33:04.009Z,40.67
2023-04-16T07:35:32.511Z,40.80
2023-04-16T07:38:00.865Z,41.29
2023-04-16T07:40:29.051Z,41.11
2023-04-16T07:42:57.720Z,40.93
2023-04-16T07:45:25.938Z,41.75
2023-04-16T07:47:54.285Z,43.21
2023-04-16T07:50:22.628Z,43.64
2023-04-16T07:52:50.944Z,43.13
2023-04-16T07:55:19.237Z,43.24
2023-04-16T07:57:47.548Z,42.57
2023-04-16T08:00:15.870Z,42.98
2023-04-16T08:02:44.667Z,42.27
2023-04-16T08:05:13.592Z,41.93
2023-04-16T08:07:42.029Z,42.24
2023-04-16T08:10:10.406Z,40.73
2023-04-16T08:12:38.744Z,41.82
2023-04-16T08:15:07.562Z,41.69
2023-04-16T08:17:36.341Z,40.23
2023-04-16T08:20:04.990Z,40.83
2023-04-16T08:22:33.715Z,40.49
2023-04-16T08:25:01.940Z,40.56
2023-04-16T08:27:30.169Z,39.11
2023-04-16T08:29:58.525Z,37.64
2023-04-16T08:32:27.313Z,35.23
2023-04-16T08:34:55.648Z,34.69
2023-04-16T08:37:23.942Z,35.78
2023-04-16T08:39:52.184Z,33.62
2023-04-16T08:42:41.015Z,32.70
2023-04-16T08:45:18.848Z,32.71
2023-04-16T08:47:56.261Z,33.05
2023-04-16T08:50:25.639Z,33.78
2023-04-16T08:53:03.703Z,33.38
2023-04-16T08:55:35.178Z,32.22
2023-04-16T08:58:08.564Z,31.06
2023-04-16T09:00:37.985Z,30.62
2023-04-16T09:03:06.570Z,32.01
2023-04-16T09:05:35.177Z,31.67
2023-04-16T09:08:04.698Z,32.47
2023-04-16T09:10:33.370Z,32.70
2023-04-16T09:13:01.724Z,32.53
2023-04-16T09:15:30.213Z,31.86
2023-04-16T09:17:58.519Z,32.58
2023-04-16T09:20:26.795Z,32.18
2023-04-16T09:22:57.111Z,32.85
2023-04-16T09:25:26.083Z,32.42
2023-04-16T09:27:54.389Z,33.18
2023-04-16T09:30:23.714Z,33.90
2023-04-16T09:32:53.037Z,34.12
2023-04-16T09:35:21.685Z,34.58
2023-04-16T09:37:57.243Z,34.72
2023-04-16T09:40:27.362Z,33.97
2023-04-16T09:42:58.867Z,34.89
2023-04-16T09:45:31.476Z,34.11
2023-04-16T09:48:02.934Z,35.02
2023-04-16T09:50:31.180Z,35.43
2023-04-16T09:53:02.503Z,35.75
2023-04-16T09:55:31.121Z,37.40
2023-04-16T09:58:01.107Z,36.21
2023-04-16T10:00:30.740Z,36.46
2023-04-16T10:03:06.358Z,37.38
2023-04-16T10:05:35.081Z,37.39
2023-04-16T10:08:03.440Z,37.12
2023-04-16T10:10:32.512Z,37.53
2023-04-16T10:13:00.994Z,37.76
2023-04-16T10:15:29.481Z,37.97
2023-04-16T10:17:58.288Z,38.42
2023-04-16T10:20:26.660Z,39.22
2023-04-16T10:22:55.132Z,40.38
2023-04-16T10:25:23.992Z,40.13
2023-04-16T10:27:52.424Z,40.75
2023-04-16T10:30:21.935Z,40.89
2023-04-16T10:32:50.485Z,40.42
2023-04-16T10:35:21.874Z,40.46
2023-04-16T10:37:51.719Z,41.45
2023-04-16T10:40:24.422Z,42.07
2023-04-16T10:42:56.578Z,42.06
2023-04-16T10:45:32.790Z,41.78
2023-04-16T10:48:05.033Z,41.44
2023-04-16T10:50:37.285Z,40.80
2023-04-16T10:53:22.881Z,39.66
2023-04-16T10:56:17.307Z,39.46
2023-04-16T10:58:45.524Z,38.76
2023-04-16T11:01:14.486Z,38.36
2023-04-16T11:03:49.561Z,37.95
2023-04-16T11:06:24.027Z,37.61
2023-04-16T11:09:08.213Z,38.28
2023-04-16T11:11:38.883Z,36.90
2023-04-16T11:14:08.284Z,36.28
2023-04-16T11:16:40.859Z,36.60
2023-04-16T11:19:15.930Z,36.08
2023-04-16T11:21:45.440Z,35.55
2023-04-16T11:24:16.789Z,34.40
2023-04-16T11:26:45.086Z,34.13
2023-04-16T11:29:16.384Z,34.14
2023-04-16T11:31:50.494Z,34.19
2023-04-16T11:34:19.164Z,35.07
2023-04-16T11:36:48.621Z,36.12
2023-04-16T11:39:17.071Z,36.63
2023-04-16T11:41:49.367Z,36.58
2023-04-16T11:44:17.757Z,36.74
2023-04-16T11:46:46.226Z,37.43
2023-04-16T11:49:14.526Z,38.08
2023-04-16T11:51:44.798Z,38.55
2023-04-16T11:54:20.141Z,38.93
2023-04-16T11:56:49.297Z,39.98
2023-04-16T11:59:18.599Z,41.19
2023-04-16T12:01:51.547Z,40.47
2023-04-16T12:04:21.239Z,42.01
2023-04-16T12:07:08.706Z,42.86
2023-04-16T12:09:40.157Z,43.40
2023-04-16T12:12:31.470Z,44.09
2023-04-16T12:15:03.299Z,44.03
2023-04-16T12:17:33.157Z,45.07
2023-04-16T12:20:02.783Z,45.82
2023-04-16T12:22:32.906Z,46.77
2023-04-16T12:25:03.347Z,47.43
2023-04-16T12:28:00.881Z,49.22
2023-04-16T12:30:31.037Z,48.88
2023-04-16T12:33:18.176Z,49.64
2023-04-16T12:35:46.543Z,50.93
2023-04-16T12:38:15.505Z,51.83
2023-04-16T12:40:43.958Z,52.33
2023-04-16T12:43:12.346Z,53.38
2023-04-16T12:45:40.826Z,55.20
2023-04-16T12:48:09.043Z,54.95
2023-04-16T12:50:37.429Z,55.12
2023-04-16T12:53:05.782Z,55.28
2023-04-16T12:55:33.906Z,55.32
2023-04-16T12:58:02.268Z,54.48
2023-04-16T13:00:30.719Z,54.95
2023-04-16T13:02:59.112Z,56.39
2023-04-16T13:05:27.546Z,58.13
2023-04-16T13:07:55.887Z,56.72
2023-04-16T13:10:24.297Z,56.48
2023-04-16T13:12:52.605Z,58.10
2023-04-16T13:15:20.987Z,57.66
2023-04-16T13:17:49.252Z,58.01
2023-04-16T13:20:17.548Z,57.96
2023-04-16T13:22:45.906Z,59.27
2023-04-16T13:25:14.215Z,60.17
2023-04-16T13:27:42.401Z,60.79
2023-04-16T13:30:11.187Z,60.33
2023-04-16T13:32:40.748Z,60.12
2023-04-16T13:35:10.870Z,60.96
2023-04-16T13:37:39.290Z,60.86
2023-04-16T13:40:08.009Z,62.54
2023-04-16T13:42:36.484Z,63.06
2023-04-16T13:45:04.814Z,62.70
2023-04-16T13:47:33.023Z,62.92
2023-04-16T13:50:01.246Z,63.95
2023-04-16T13:52:29.464Z,64.68
2023-04-16T13:54:59.592Z,64.61
2023-04-16T13:57:28.566Z,65.43
2023-04-16T13:59:57.908Z,65.80
2023-04-16T14:02:26.854Z,67.30
2023-04-16T14:04:55.323Z,66.62
2023-04-16T14:07:27.087Z,67.72
2023-04-16T14:09:55.603Z,68.16
2023-04-16T14:12:23.939Z,68.77
2023-04-16T14:14:52.378Z,66.92
2023-04-16T14:17:20.716Z,69.27
2023-04-16T14:19:49.110Z,74.84
2023-04-16T14:22:18.162Z,70.12
2023-04-16T14:24:46.658Z,74.38
2023-04-16T14:27:14.985Z,73.81
2023-04-16T14:29:44.534Z,72.74
2023-04-16T14:32:13.008Z,75.47
2023-04-16T14:34:41.357Z,76.91
2023-04-16T14:37:09.658Z,73.67
2023-04-16T14:39:39.329Z,78.24
2023-04-16T14:42:07.512Z,75.17
2023-04-16T14:44:35.728Z,76.85
2023-04-16T14:47:04.144Z,79.46
2023-04-16T14:49:32.401Z,79.40
2023-04-16T14:52:02.332Z,78.67
2023-04-16T14:54:31.367Z,79.65
2023-04-16T14:56:59.754Z,75.37
2023-04-16T14:59:28.200Z,81.68
2023-04-16T15:01:59.373Z,77.65
2023-04-16T15:04:28.058Z,76.98
2023-04-16T15:06:59.177Z,76.83
2023-04-16T15:09:27.722Z,78.84
2023-04-16T15:11:57.111Z,78.05
2023-04-16T15:14:25.393Z,74.69
2023-04-16T15:16:53.714Z,78.36
2023-04-16T15:19:22.135Z,77.85
2023-04-16T15:21:50.605Z,80.04
2023-04-16T15:24:18.793Z,81.16
2023-04-16T15:26:47.105Z,79.64
2023-04-16T15:29:15.909Z,79.07
2023-04-16T15:31:44.133Z,79.07
2023-04-16T15:34:13.427Z,75.84
2023-04-16T15:36:42.206Z,79.63
2023-04-16T15:39:11.100Z,79.82
2023-04-16T15:41:53.373Z,82.06
2023-04-16T15:44:25.516Z,80.64
2023-04-16T15:46:53.947Z,79.65
2023-04-16T15:49:22.225Z,82.39
2023-04-16T15:51:50.986Z,80.77
2023-04-16T15:54:19.350Z,77.45
2023-04-16T15:56:47.769Z,78.49
2023-04-16T15:59:16.245Z,79.27
2023-04-16T16:01:44.616Z,78.98
2023-04-16T16:04:12.852Z,77.90
2023-04-16T16:06:41.187Z,79.40
2023-04-16T16:09:09.632Z,79.50
2023-04-16T16:11:38.510Z,78.00
2023-04-16T16:14:06.695Z,78.47
2023-04-16T16:16:35.280Z,78.70
2023-04-16T16:19:03.696Z,79.11
2023-04-16T16:21:32.709Z,79.09
2023-04-16T16:24:01.124Z,78.77
2023-04-16T16:26:29.624Z,78.44
2023-04-16T16:28:57.893Z,77.43
2023-04-16T16:31:26.276Z,78.94
2023-04-16T16:33:54.616Z,78.14
2023-04-16T16:36:22.927Z,79.85
2023-04-16T16:38:51.410Z,78.03
2023-04-16T16:41:19.621Z,76.92
2023-04-16T16:43:47.851Z,78.98
2023-04-16T16:46:16.380Z,78.81
2023-04-16T16:48:44.665Z,77.76
2023-04-16T16:51:13.014Z,79.10
2023-04-16T16:53:41.189Z,82.83
2023-04-16T16:56:09.474Z,83.99
2023-04-16T16:58:37.750Z,83.85
2023-04-16T17:01:06.151Z,80.94
2023-04-16T17:03:34.837Z,81.66
2023-04-16T17:06:03.170Z,82.79
2023-04-16T17:08:31.488Z,84.93
2023-04-16T17:11:02.755Z,85.85
2023-04-16T17:13:32.834Z,87.72
2023-04-16T17:16:01.225Z,83.16
2023-04-16T17:18:29.518Z,85.93
2023-04-16T17:20:57.932Z,87.87
2023-04-16T17:23:26.390Z,87.75
2023-04-16T17:25:54.672Z,88.58
2023-04-16T17:28:22.896Z,89.28
2023-04-16T17:30:51.613Z,89.03
2023-04-16T17:33:20.652Z,88.96
2023-04-16T17:35:49.015Z,87.46
2023-04-16T17:38:17.353Z,85.31
2023-04-16T17:40:45.844Z,84.67
2023-04-16T17:43:14.044Z,86.72
2023-04-16T17:45:42.410Z,85.06
2023-04-16T17:48:11.190Z,83.66
2023-04-16T17:50:39.833Z,85.61
2023-04-16T17:53:08.191Z,86.10
2023-04-16T17:55:36.708Z,85.98
2023-04-16T17:58:04.991Z,84.12
2023-04-16T18:00:33.581Z,83.68
2023-04-16T18:03:02.119Z,83.39
2023-04-16T18:05:30.760Z,83.15
2023-04-16T18:07:59.174Z,82.52
2023-04-16T18:10:29.643Z,85.05
2023-04-16T18:12:57.907Z,83.07
2023-04-16T18:15:26.173Z,82.36
2023-04-16T18:17:54.621Z,83.10
2023-04-16T18:20:24.028Z,83.13
2023-04-16T18:22:52.331Z,82.73
2023-04-16T18:25:31.981Z,83.74
2023-04-16T18:28:04.057Z,83.47
2023-04-16T18:30:32.669Z,84.06
2023-04-16T18:33:30.496Z,84.86
2023-04-16T18:35:50.001Z,81.85
2023-04-16T18:38:18.261Z,80.94
2023-04-16T18:40:47.321Z,81.58
2023-04-16T18:43:16.052Z,83.46
2023-04-16T18:45:44.335Z,83.29
2023-04-16T18:48:12.619Z,82.69
2023-04-16T18:50:41.246Z,83.44
2023-04-16T18:53:09.517Z,83.36
2023-04-16T18:55:37.947Z,83.05
2023-04-16T18:58:06.308Z,81.68
2023-04-16T19:00:34.581Z,80.56
2023-04-16T19:03:07.138Z,80.58
2023-04-16T19:05:35.704Z,80.74
2023-04-16T19:08:03.990Z,83.78
2023-04-16T19:10:32.201Z,82.38
2023-04-16T19:13:00.505Z,82.29
2023-04-16T19:15:31.560Z,81.93
2023-04-16T19:18:00.903Z,82.84
2023-04-16T19:20:29.140Z,82.45
2023-04-16T19:22:57.496Z,81.34
2023-04-16T19:25:25.992Z,80.65
2023-04-16T19:27:56.106Z,79.93
2023-04-16T19:30:24.520Z,79.77
2023-04-16T19:32:55.141Z,80.78
2023-04-16T19:35:24.182Z,81.09
2023-04-16T19:37:52.646Z,82.08
2023-04-16T19:40:21.012Z,81.61
2023-04-16T19:42:49.622Z,80.60
2023-04-16T19:45:18.563Z,82.00
2023-04-16T19:47:48.887Z,81.73
2023-04-16T19:50:17.294Z,81.37
2023-04-16T19:52:45.669Z,80.86
2023-04-16T19:55:13.937Z,80.81
2023-04-16T19:57:42.263Z,80.27
2023-04-16T20:00:11.959Z,80.22
2023-04-16T20:02:40.908Z,80.21
2023-04-16T20:05:09.605Z,81.43
2023-04-16T20:07:37.744Z,81.15
2023-04-16T20:10:06.409Z,80.90
2023-04-16T20:12:34.605Z,81.47
2023-04-16T20:15:02.843Z,80.35
2023-04-16T20:17:31.256Z,80.05
2023-04-16T20:20:01.186Z,79.69
2023-04-16T20:22:29.496Z,80.79
2023-04-16T20:24:58.170Z,81.20
2023-04-16T20:27:26.425Z,80.34
2023-04-16T20:29:54.675Z,80.36
2023-04-16T20:32:23.543Z,80.64
2023-04-16T20:34:52.992Z,79.77
2023-04-16T20:37:21.768Z,79.49
2023-04-16T20:39:54.283Z,79.90
2023-04-16T20:42:22.958Z,79.85
2023-04-16T20:44:55.876Z,80.44
2023-04-16T20:47:24.088Z,80.26
2023-04-16T20:49:53.147Z,81.47
2023-04-16T20:52:24.429Z,81.11
2023-04-16T20:54:52.673Z,81.19
2023-04-16T20:57:21.037Z,80.64
2023-04-16T20:59:49.507Z,80.22
2023-04-16T21:02:18.001Z,80.60
2023-04-16T21:04:46.758Z,80.34
2023-04-16T21:07:15.676Z,81.45
2023-04-16T21:09:43.988Z,81.30
2023-04-16T21:12:12.358Z,81.07
2023-04-16T21:14:40.643Z,80.88
2023-04-16T21:17:08.837Z,81.67
2023-04-16T21:19:37.040Z,81.62
2023-04-16T21:22:05.379Z,81.70
2023-04-16T21:24:33.590Z,81.59
2023-04-16T21:27:01.944Z,81.94
2023-04-16T21:29:30.761Z,82.52
2023-04-16T21:31:59.150Z,82.13
2023-04-16T21:34:27.510Z,83.07
2023-04-16T21:36:56.081Z,82.98
2023-04-16T21:39:27.708Z,82.10
2023-04-16T21:41:56.542Z,81.65
2023-04-16T21:44:24.779Z,82.02
2023-04-16T21:46:53.299Z,82.34
2023-04-16T21:49:21.686Z,81.42
2023-04-16T21:51:50.476Z,81.74
2023-04-16T21:54:20.328Z,81.07
2023-04-16T21:56:48.568Z,80.82
2023-04-16T21:59:16.834Z,81.04
2023-04-16T22:01:45.093Z,81.72
2023-04-16T22:04:13.509Z,81.24
2023-04-16T22:06:41.808Z,81.53
2023-04-16T22:09:10.330Z,81.47
2023-04-16T22:11:38.871Z,81.88
2023-04-16T22:14:08.900Z,81.94
2023-04-16T22:16:37.123Z,81.52
2023-04-16T22:19:05.599Z,82.41
2023-04-16T22:21:33.821Z,81.30
2023-04-16T22:24:02.939Z,81.64
2023-04-16T22:26:31.196Z,81.96
2023-04-16T22:28:59.500Z,82.05
2023-04-16T22:31:27.673Z,82.26
2023-04-16T22:33:56.021Z,82.38
2023-04-16T22:36:24.165Z,82.15
2023-04-16T22:38:52.656Z,81.25
2023-04-16T22:41:21.283Z,82.55
2023-04-16T22:43:52.310Z,82.96
2023-04-16T22:46:22.414Z,82.00
2023-04-16T22:48:51.892Z,82.25
2023-04-16T22:51:24.365Z,81.99
2023-04-16T22:53:52.968Z,82.55
2023-04-16T22:56:21.563Z,82.21
2023-04-16T22:58:49.863Z,81.71
2023-04-16T23:01:18.156Z,82.17
2023-04-16T23:03:46.559Z,81.44
2023-04-16T23:06:14.911Z,81.72
2023-04-16T23:08:43.223Z,82.40
2023-04-16T23:11:11.544Z,82.64
2023-04-16T23:13:39.856Z,82.08
2023-04-16T23:16:08.479Z,83.08
2023-04-16T23:18:37.073Z,81.92
2023-04-16T23:21:05.412Z,82.30
2023-04-16T23:23:33.696Z,82.13
2023-04-16T23:26:03.016Z,82.85
2023-04-16T23:28:31.283Z,82.48
2023-04-16T23:30:59.691Z,82.32
2023-04-16T23:33:27.952Z,82.31
2023-04-16T23:35:56.633Z,82.99
2023-04-16T23:38:24.828Z,81.51
2023-04-16T23:40:53.065Z,83.04
2023-04-16T23:43:21.332Z,81.88
2023-04-16T23:45:49.499Z,82.94
2023-04-16T23:48:17.899Z,82.12
2023-04-16T23:50:46.280Z,81.47
2023-04-16T23:53:14.632Z,82.29
2023-04-16T23:55:42.955Z,81.95
2023-04-16T23:58:11.621Z,82.83
